sensor_id;sensor_type;location;lat;lon;timestamp;pressure;altitude;pressure_sealevel;temperature;humidity
61357;BME280;47227;46.752;23.576;2023-04-07T00:00:31;95923.27;;;-1.32;79.78
61357;BME280;47227;46.752;23.576;2023-04-07T00:09:47;95924.86;;;-1.16;79.92
61357;BME280;47227;46.752;23.576;2023-04-07T00:12:24;95927.11;;;-1.09;80.08
61357;BME280;47227;46.752;23.576;2023-04-07T00:14:57;95927.37;;;-1.03;80.20
61357;BME280;47227;46.752;23.576;2023-04-07T00:17:47;95927.48;;;-0.99;80.10
61357;BME280;47227;46.752;23.576;2023-04-07T00:20:37;95925.50;;;-0.96;80.25
61357;BME280;47227;46.752;23.576;2023-04-07T00:23:45;95923.44;;;-0.93;80.12
61357;BME280;47227;46.752;23.576;2023-04-07T00:26:55;95922.30;;;-0.91;80.32
61357;BME280;47227;46.752;23.576;2023-04-07T00:30:16;95918.23;;;-0.87;80.40
61357;BME280;47227;46.752;23.576;2023-04-07T00:34:05;95919.10;;;-0.82;80.56
61357;BME280;47227;46.752;23.576;2023-04-07T00:36:54;95914.77;;;-0.83;80.52
61357;BME280;47227;46.752;23.576;2023-04-07T00:39:44;95912.96;;;-0.90;80.11
61357;BME280;47227;46.752;23.576;2023-04-07T00:42:52;95910.10;;;-0.96;80.05
61357;BME280;47227;46.752;23.576;2023-04-07T00:46:28;95911.91;;;-1.01;80.11
61357;BME280;47227;46.752;23.576;2023-04-07T00:49:17;95913.36;;;-1.05;79.98
61357;BME280;47227;46.752;23.576;2023-04-07T00:51:55;95912.27;;;-1.09;80.21
61357;BME280;47227;46.752;23.576;2023-04-07T00:55:07;95912.17;;;-1.14;80.14
61357;BME280;47227;46.752;23.576;2023-04-07T00:58:00;95909.15;;;-1.20;79.72
61357;BME280;47227;46.752;23.576;2023-04-07T01:00:59;95909.55;;;-1.23;80.27
61357;BME280;47227;46.752;23.576;2023-04-07T01:03:51;95910.25;;;-1.28;80.42
61357;BME280;47227;46.752;23.576;2023-04-07T01:07:05;95912.48;;;-1.34;80.74
61357;BME280;47227;46.752;23.576;2023-04-07T01:10:28;95913.80;;;-1.36;81.26
61357;BME280;47227;46.752;23.576;2023-04-07T01:14:16;95912.69;;;-1.37;80.76
61357;BME280;47227;46.752;23.576;2023-04-07T01:17:51;95913.94;;;-1.39;80.54
61357;BME280;47227;46.752;23.576;2023-04-07T01:21:20;95909.08;;;-1.44;81.29
61357;BME280;47227;46.752;23.576;2023-04-07T01:28:09;95913.83;;;-1.38;81.06
61357;BME280;47227;46.752;23.576;2023-04-07T01:34:58;95912.52;;;-1.34;81.03
61357;BME280;47227;46.752;23.576;2023-04-07T01:47:36;95907.02;;;-1.38;85.72
61357;BME280;47227;46.752;23.576;2023-04-07T01:51:29;95913.79;;;-1.37;86.23
61357;BME280;47227;46.752;23.576;2023-04-07T02:01:37;95911.14;;;-1.19;84.99
61357;BME280;47227;46.752;23.576;2023-04-07T02:09:01;95912.50;;;-0.98;83.78
61357;BME280;47227;46.752;23.576;2023-04-07T02:15:19;95913.02;;;-0.83;83.69
61357;BME280;47227;46.752;23.576;2023-04-07T02:18:58;95909.08;;;-0.76;83.44
61357;BME280;47227;46.752;23.576;2023-04-07T02:23:02;95906.39;;;-0.64;83.17
61357;BME280;47227;46.752;23.576;2023-04-07T02:26:19;95902.38;;;-0.59;83.10
61357;BME280;47227;46.752;23.576;2023-04-07T02:29:54;95908.55;;;-0.60;83.22
61357;BME280;47227;46.752;23.576;2023-04-07T02:32:42;95910.02;;;-0.60;82.81
61357;BME280;47227;46.752;23.576;2023-04-07T02:35:58;95907.55;;;-0.62;82.78
61357;BME280;47227;46.752;23.576;2023-04-07T02:43:11;95915.44;;;-0.75;83.64
61357;BME280;47227;46.752;23.576;2023-04-07T02:49:32;95914.69;;;-0.78;83.41
61357;BME280;47227;46.752;23.576;2023-04-07T02:52:06;95917.02;;;-0.76;83.26
61357;BME280;47227;46.752;23.576;2023-04-07T02:54:36;95919.67;;;-0.76;83.03
61357;BME280;47227;46.752;23.576;2023-04-07T02:57:09;95921.92;;;-0.76;82.74
61357;BME280;47227;46.752;23.576;2023-04-07T03:00:00;95921.95;;;-0.78;82.78
61357;BME280;47227;46.752;23.576;2023-04-07T03:03:02;95920.27;;;-0.82;83.03
61357;BME280;47227;46.752;23.576;2023-04-07T03:06:01;95921.45;;;-0.89;84.47
61357;BME280;47227;46.752;23.576;2023-04-07T03:08:48;95926.70;;;-0.97;85.48
61357;BME280;47227;46.752;23.576;2023-04-07T03:12:19;95928.35;;;-1.04;85.89
61357;BME280;47227;46.752;23.576;2023-04-07T03:15:16;95928.66;;;-1.08;86.01
61357;BME280;47227;46.752;23.576;2023-04-07T03:18:17;95925.94;;;-1.16;86.64
61357;BME280;47227;46.752;23.576;2023-04-07T03:20:48;95930.17;;;-1.16;86.22
61357;BME280;47227;46.752;23.576;2023-04-07T03:23:24;95935.09;;;-1.19;87.54
61357;BME280;47227;46.752;23.576;2023-04-07T03:26:13;95931.36;;;-1.24;87.91
61357;BME280;47227;46.752;23.576;2023-04-07T03:29:04;95934.35;;;-1.27;88.24
61357;BME280;47227;46.752;23.576;2023-04-07T03:31:34;95939.44;;;-1.25;87.48
61357;BME280;47227;46.752;23.576;2023-04-07T03:34:44;95939.84;;;-1.25;87.92
61357;BME280;47227;46.752;23.576;2023-04-07T03:37:19;95938.38;;;-1.25;87.74
61357;BME280;47227;46.752;23.576;2023-04-07T03:39:55;95940.20;;;-1.23;87.82
61357;BME280;47227;46.752;23.576;2023-04-07T03:43:06;95947.33;;;-1.19;87.49
61357;BME280;47227;46.752;23.576;2023-04-07T03:45:48;95946.80;;;-1.11;87.32
61357;BME280;47227;46.752;23.576;2023-04-07T03:48:42;95957.23;;;-1.04;86.71
61357;BME280;47227;46.752;23.576;2023-04-07T03:51:10;95955.91;;;-0.97;86.44
61357;BME280;47227;46.752;23.576;2023-04-07T03:57:02;95959.77;;;-0.87;86.19
61357;BME280;47227;46.752;23.576;2023-04-07T03:59:53;95962.59;;;-0.81;86.05
61357;BME280;47227;46.752;23.576;2023-04-07T04:02:44;95962.25;;;-0.77;85.69
61357;BME280;47227;46.752;23.576;2023-04-07T04:05:15;95961.63;;;-0.75;85.60
61357;BME280;47227;46.752;23.576;2023-04-07T04:07:44;95961.20;;;-0.74;85.72
61357;BME280;47227;46.752;23.576;2023-04-07T04:10:14;95961.10;;;-0.76;85.31
61357;BME280;47227;46.752;23.576;2023-04-07T04:12:44;95965.02;;;-0.77;85.16
61357;BME280;47227;46.752;23.576;2023-04-07T04:15:13;95965.02;;;-0.82;85.39
61357;BME280;47227;46.752;23.576;2023-04-07T04:17:43;95962.84;;;-0.85;85.26
61357;BME280;47227;46.752;23.576;2023-04-07T04:20:11;95966.05;;;-0.89;85.20
61357;BME280;47227;46.752;23.576;2023-04-07T04:22:42;95970.58;;;-0.91;84.94
61357;BME280;47227;46.752;23.576;2023-04-07T04:25:15;95976.27;;;-0.93;84.87
61357;BME280;47227;46.752;23.576;2023-04-07T04:27:48;95977.56;;;-0.95;84.90
61357;BME280;47227;46.752;23.576;2023-04-07T04:30:20;95978.60;;;-0.97;84.78
61357;BME280;47227;46.752;23.576;2023-04-07T04:32:52;95983.23;;;-0.98;84.73
61357;BME280;47227;46.752;23.576;2023-04-07T04:35:25;95981.73;;;-0.97;84.65
61357;BME280;47227;46.752;23.576;2023-04-07T04:38:11;95983.55;;;-0.96;84.92
61357;BME280;47227;46.752;23.576;2023-04-07T04:40:44;95985.23;;;-0.96;84.83
61357;BME280;47227;46.752;23.576;2023-04-07T04:43:14;95984.48;;;-0.94;84.94
61357;BME280;47227;46.752;23.576;2023-04-07T04:45:43;95979.91;;;-0.93;84.89
61357;BME280;47227;46.752;23.576;2023-04-07T04:48:36;95982.77;;;-0.91;84.85
61357;BME280;47227;46.752;23.576;2023-04-07T04:51:28;95984.98;;;-0.90;84.74
61357;BME280;47227;46.752;23.576;2023-04-07T04:55:25;95982.27;;;-0.87;84.79
61357;BME280;47227;46.752;23.576;2023-04-07T04:58:00;95983.59;;;-0.87;84.51
61357;BME280;47227;46.752;23.576;2023-04-07T05:00:56;95988.55;;;-0.83;84.41
61357;BME280;47227;46.752;23.576;2023-04-07T05:03:31;95991.61;;;-0.80;84.73
61357;BME280;47227;46.752;23.576;2023-04-07T05:06:02;95989.81;;;-0.74;84.61
61357;BME280;47227;46.752;23.576;2023-04-07T05:08:31;95991.16;;;-0.65;84.60
61357;BME280;47227;46.752;23.576;2023-04-07T05:11:00;95990.93;;;-0.56;84.86
61357;BME280;47227;46.752;23.576;2023-04-07T05:13:30;95992.34;;;-0.46;84.74
61357;BME280;47227;46.752;23.576;2023-04-07T05:16:00;95992.32;;;-0.39;84.35
61357;BME280;47227;46.752;23.576;2023-04-07T05:18:29;96001.10;;;-0.35;84.21
61357;BME280;47227;46.752;23.576;2023-04-07T05:20:58;95999.25;;;-0.25;84.30
61357;BME280;47227;46.752;23.576;2023-04-07T05:23:29;96000.44;;;-0.16;83.99
61357;BME280;47227;46.752;23.576;2023-04-07T05:25:58;96005.11;;;-0.06;84.32
61357;BME280;47227;46.752;23.576;2023-04-07T05:28:26;96005.49;;;0.03;84.21
61357;BME280;47227;46.752;23.576;2023-04-07T05:30:55;96005.79;;;0.06;83.69
61357;BME280;47227;46.752;23.576;2023-04-07T05:33:40;96007.13;;;0.05;83.34
61357;BME280;47227;46.752;23.576;2023-04-07T05:36:36;96009.20;;;0.10;83.50
61357;BME280;47227;46.752;23.576;2023-04-07T06:03:44;96033.80;;;0.33;82.53
61357;BME280;47227;46.752;23.576;2023-04-07T06:22:22;96038.97;;;0.50;81.64
61357;BME280;47227;46.752;23.576;2023-04-07T06:26:25;96042.05;;;0.51;82.78
61357;BME280;47227;46.752;23.576;2023-04-07T06:29:38;96042.52;;;0.60;82.43
61357;BME280;47227;46.752;23.576;2023-04-07T06:58:42;96057.60;;;1.66;81.01
61357;BME280;47227;46.752;23.576;2023-04-07T07:01:13;96062.73;;;1.71;80.66
61357;BME280;47227;46.752;23.576;2023-04-07T07:04:04;96060.77;;;1.78;80.34
61357;BME280;47227;46.752;23.576;2023-04-07T07:07:02;96067.13;;;1.80;79.18
61357;BME280;47227;46.752;23.576;2023-04-07T07:28:01;96078.41;;;2.28;77.20
61357;BME280;47227;46.752;23.576;2023-04-07T07:31:54;96083.31;;;2.46;76.87
61357;BME280;47227;46.752;23.576;2023-04-07T07:39:29;96088.38;;;2.77;75.23
61357;BME280;47227;46.752;23.576;2023-04-07T07:43:14;96091.55;;;2.81;72.42
61357;BME280;47227;46.752;23.576;2023-04-07T07:58:15;96099.55;;;3.14;71.48
61357;BME280;47227;46.752;23.576;2023-04-07T08:18:40;96109.05;;;3.44;71.63
61357;BME280;47227;46.752;23.576;2023-04-07T08:22:28;96110.80;;;3.58;71.04
61357;BME280;47227;46.752;23.576;2023-04-07T08:29:26;96108.20;;;3.60;69.93
61357;BME280;47227;46.752;23.576;2023-04-07T08:32:39;96105.20;;;3.69;70.38
61357;BME280;47227;46.752;23.576;2023-04-07T08:35:49;96107.45;;;3.74;69.67
61357;BME280;47227;46.752;23.576;2023-04-07T08:54:50;96111.20;;;4.14;69.21
61357;BME280;47227;46.752;23.576;2023-04-07T09:01:35;96112.88;;;4.45;67.22
61357;BME280;47227;46.752;23.576;2023-04-07T09:09:48;96109.98;;;4.64;65.69
61357;BME280;47227;46.752;23.576;2023-04-07T09:13:26;96112.55;;;4.67;64.20
61357;BME280;47227;46.752;23.576;2023-04-07T09:20:27;96109.13;;;4.88;63.61
61357;BME280;47227;46.752;23.576;2023-04-07T09:23:37;96112.41;;;4.97;63.45
61357;BME280;47227;46.752;23.576;2023-04-07T09:26:25;96110.16;;;5.12;63.39
61357;BME280;47227;46.752;23.576;2023-04-07T09:30:13;96110.29;;;5.26;63.47
61357;BME280;47227;46.752;23.576;2023-04-07T09:33:32;96111.88;;;5.34;63.56
61357;BME280;47227;46.752;23.576;2023-04-07T09:36:47;96116.55;;;5.38;61.61
61357;BME280;47227;46.752;23.576;2023-04-07T09:51:04;96118.91;;;5.97;58.71
61357;BME280;47227;46.752;23.576;2023-04-07T09:54:26;96116.41;;;5.99;59.38
61357;BME280;47227;46.752;23.576;2023-04-07T09:58:14;96118.73;;;5.89;57.76
61357;BME280;47227;46.752;23.576;2023-04-07T10:00:54;96120.23;;;5.87;58.79
61357;BME280;47227;46.752;23.576;2023-04-07T10:03:42;96121.52;;;5.82;57.98
61357;BME280;47227;46.752;23.576;2023-04-07T10:06:15;96123.22;;;5.85;58.11
61357;BME280;47227;46.752;23.576;2023-04-07T10:08:57;96121.79;;;5.95;58.43
61357;BME280;47227;46.752;23.576;2023-04-07T10:12:23;96124.23;;;6.06;57.99
61357;BME280;47227;46.752;23.576;2023-04-07T10:15:40;96125.98;;;6.06;57.93
61357;BME280;47227;46.752;23.576;2023-04-07T10:19:23;96125.07;;;5.95;57.79
61357;BME280;47227;46.752;23.576;2023-04-07T10:23:40;96128.95;;;5.95;58.67
61357;BME280;47227;46.752;23.576;2023-04-07T10:26:23;96133.30;;;6.03;58.65
61357;BME280;47227;46.752;23.576;2023-04-07T10:29:28;96137.36;;;6.12;59.03
61357;BME280;47227;46.752;23.576;2023-04-07T10:32:48;96134.48;;;6.07;57.96
61357;BME280;47227;46.752;23.576;2023-04-07T10:36:02;96132.31;;;6.22;58.27
61357;BME280;47227;46.752;23.576;2023-04-07T10:39:20;96128.59;;;6.38;58.81
61357;BME280;47227;46.752;23.576;2023-04-07T10:43:01;96132.53;;;6.53;58.89
61357;BME280;47227;46.752;23.576;2023-04-07T10:45:51;96130.86;;;6.64;58.94
61357;BME280;47227;46.752;23.576;2023-04-07T10:49:09;96131.59;;;6.25;57.03
61357;BME280;47227;46.752;23.576;2023-04-07T10:55:35;96133.10;;;6.53;58.42
61357;BME280;47227;46.752;23.576;2023-04-07T10:58:41;96132.15;;;6.57;57.91
61357;BME280;47227;46.752;23.576;2023-04-07T11:01:29;96133.37;;;6.65;57.71
61357;BME280;47227;46.752;23.576;2023-04-07T11:04:18;96136.89;;;6.81;58.25
61357;BME280;47227;46.752;23.576;2023-04-07T11:06:53;96136.27;;;6.72;56.49
61357;BME280;47227;46.752;23.576;2023-04-07T11:09:55;96136.14;;;6.80;57.51
61357;BME280;47227;46.752;23.576;2023-04-07T11:13:04;96135.54;;;6.96;57.50
61357;BME280;47227;46.752;23.576;2023-04-07T11:16:06;96139.38;;;6.85;56.63
61357;BME280;47227;46.752;23.576;2023-04-07T11:19:10;96141.57;;;6.86;57.69
61357;BME280;47227;46.752;23.576;2023-04-07T11:21:43;96139.08;;;6.89;57.65
61357;BME280;47227;46.752;23.576;2023-04-07T11:24:31;96143.91;;;6.81;57.34
61357;BME280;47227;46.752;23.576;2023-04-07T11:27:43;96145.48;;;6.92;57.76
61357;BME280;47227;46.752;23.576;2023-04-07T11:30:50;96140.14;;;6.94;56.74
61357;BME280;47227;46.752;23.576;2023-04-07T11:33:36;96141.55;;;6.82;57.32
61357;BME280;47227;46.752;23.576;2023-04-07T11:36:56;96145.69;;;6.79;56.97
61357;BME280;47227;46.752;23.576;2023-04-07T11:40:34;96146.16;;;7.07;57.40
61357;BME280;47227;46.752;23.576;2023-04-07T11:46:58;96146.12;;;7.37;56.58
61357;BME280;47227;46.752;23.576;2023-04-07T11:51:25;96146.04;;;7.67;56.31
61357;BME280;47227;46.752;23.576;2023-04-07T11:54:44;96148.81;;;7.95;55.83
61357;BME280;47227;46.752;23.576;2023-04-07T12:01:25;96151.17;;;8.25;55.17
61357;BME280;47227;46.752;23.576;2023-04-07T12:05:11;96146.23;;;8.43;54.84
61357;BME280;47227;46.752;23.576;2023-04-07T12:08:41;96146.36;;;8.48;53.48
61357;BME280;47227;46.752;23.576;2023-04-07T12:11:52;96152.86;;;8.40;53.88
61357;BME280;47227;46.752;23.576;2023-04-07T12:14:46;96151.81;;;8.14;52.77
61357;BME280;47227;46.752;23.576;2023-04-07T12:17:28;96152.05;;;8.26;53.95
61357;BME280;47227;46.752;23.576;2023-04-07T12:20:08;96156.23;;;8.44;54.52
61357;BME280;47227;46.752;23.576;2023-04-07T12:26:07;96157.11;;;8.57;53.44
61357;BME280;47227;46.752;23.576;2023-04-07T12:29:13;96157.55;;;8.48;53.87
61357;BME280;47227;46.752;23.576;2023-04-07T12:32:06;96158.30;;;8.41;53.32
61357;BME280;47227;46.752;23.576;2023-04-07T12:35:15;96157.98;;;8.55;53.59
61357;BME280;47227;46.752;23.576;2023-04-07T12:38:04;96159.83;;;8.12;53.65
61357;BME280;47227;46.752;23.576;2023-04-07T12:40:45;96160.67;;;8.01;53.90
61357;BME280;47227;46.752;23.576;2023-04-07T12:44:01;96153.95;;;7.56;55.19
61357;BME280;47227;46.752;23.576;2023-04-07T12:47:36;96159.16;;;7.73;55.85
61357;BME280;47227;46.752;23.576;2023-04-07T12:50:45;96158.64;;;7.73;55.22
61357;BME280;47227;46.752;23.576;2023-04-07T12:53:46;96159.86;;;7.36;55.93
61357;BME280;47227;46.752;23.576;2023-04-07T12:56:22;96165.28;;;7.35;55.92
61357;BME280;47227;46.752;23.576;2023-04-07T12:59:17;96164.04;;;7.21;56.39
61357;BME280;47227;46.752;23.576;2023-04-07T13:02:00;96163.80;;;7.39;56.87
61357;BME280;47227;46.752;23.576;2023-04-07T13:04:31;96165.64;;;7.48;56.40
61357;BME280;47227;46.752;23.576;2023-04-07T13:07:31;96168.19;;;7.47;56.53
61357;BME280;47227;46.752;23.576;2023-04-07T13:10:50;96169.45;;;7.35;57.00
61357;BME280;47227;46.752;23.576;2023-04-07T13:13:22;96171.08;;;7.35;56.78
61357;BME280;47227;46.752;23.576;2023-04-07T13:15:53;96170.13;;;7.37;57.01
61357;BME280;47227;46.752;23.576;2023-04-07T13:18:59;96173.68;;;7.28;56.98
61357;BME280;47227;46.752;23.576;2023-04-07T13:22:01;96173.05;;;7.20;57.46
61357;BME280;47227;46.752;23.576;2023-04-07T13:24:39;96176.20;;;7.07;57.64
61357;BME280;47227;46.752;23.576;2023-04-07T13:27:08;96178.84;;;7.03;57.95
61357;BME280;47227;46.752;23.576;2023-04-07T13:29:38;96179.64;;;6.93;58.83
61357;BME280;47227;46.752;23.576;2023-04-07T13:32:09;96178.51;;;6.89;59.08
61357;BME280;47227;46.752;23.576;2023-04-07T13:35:00;96180.00;;;6.88;58.59
61357;BME280;47227;46.752;23.576;2023-04-07T13:37:33;96180.70;;;6.87;58.73
61357;BME280;47227;46.752;23.576;2023-04-07T13:40:09;96179.05;;;6.72;58.99
61357;BME280;47227;46.752;23.576;2023-04-07T13:42:41;96180.05;;;6.55;59.99
61357;BME280;47227;46.752;23.576;2023-04-07T13:45:11;96184.56;;;6.56;59.96
61357;BME280;47227;46.752;23.576;2023-04-07T13:47:45;96183.97;;;6.55;59.70
61357;BME280;47227;46.752;23.576;2023-04-07T13:50:23;96185.59;;;6.54;59.48
61357;BME280;47227;46.752;23.576;2023-04-07T13:53:00;96186.28;;;6.47;58.93
61357;BME280;47227;46.752;23.576;2023-04-07T13:55:46;96186.94;;;6.41;59.43
61357;BME280;47227;46.752;23.576;2023-04-07T13:58:29;96192.66;;;6.26;59.80
61357;BME280;47227;46.752;23.576;2023-04-07T14:01:03;96195.29;;;6.14;61.16
61357;BME280;47227;46.752;23.576;2023-04-07T14:03:46;96193.36;;;6.04;62.45
61357;BME280;47227;46.752;23.576;2023-04-07T14:06:55;96189.90;;;5.87;62.93
61357;BME280;47227;46.752;23.576;2023-04-07T14:09:24;96196.69;;;5.69;65.25
61357;BME280;47227;46.752;23.576;2023-04-07T14:11:52;96199.20;;;5.60;64.80
61357;BME280;47227;46.752;23.576;2023-04-07T14:14:23;96197.58;;;5.43;64.71
61357;BME280;47227;46.752;23.576;2023-04-07T14:16:52;96198.94;;;5.31;64.57
61357;BME280;47227;46.752;23.576;2023-04-07T14:19:24;96204.61;;;5.17;65.73
61357;BME280;47227;46.752;23.576;2023-04-07T14:21:52;96203.78;;;5.03;65.53
61357;BME280;47227;46.752;23.576;2023-04-07T14:24:24;96204.77;;;4.95;66.33
61357;BME280;47227;46.752;23.576;2023-04-07T14:26:52;96204.75;;;4.84;66.50
61357;BME280;47227;46.752;23.576;2023-04-07T14:29:42;96206.70;;;4.67;68.34
61357;BME280;47227;46.752;23.576;2023-04-07T14:32:12;96209.03;;;4.60;67.17
61357;BME280;47227;46.752;23.576;2023-04-07T14:34:40;96211.81;;;4.58;67.13
61357;BME280;47227;46.752;23.576;2023-04-07T14:37:08;96210.36;;;4.56;67.05
61357;BME280;47227;46.752;23.576;2023-04-07T14:39:36;96211.27;;;4.50;67.30
61357;BME280;47227;46.752;23.576;2023-04-07T14:42:05;96211.01;;;4.44;67.79
61357;BME280;47227;46.752;23.576;2023-04-07T14:44:34;96214.61;;;4.40;67.68
61357;BME280;47227;46.752;23.576;2023-04-07T14:47:03;96213.14;;;4.38;68.51
61357;BME280;47227;46.752;23.576;2023-04-07T14:49:33;96214.31;;;4.36;68.53
61357;BME280;47227;46.752;23.576;2023-04-07T14:52:01;96219.29;;;4.37;69.92
61357;BME280;47227;46.752;23.576;2023-04-07T14:54:30;96218.57;;;4.38;70.07
61357;BME280;47227;46.752;23.576;2023-04-07T14:56:58;96219.95;;;4.35;69.99
61357;BME280;47227;46.752;23.576;2023-04-07T14:59:27;96221.45;;;4.31;71.05
61357;BME280;47227;46.752;23.576;2023-04-07T15:01:55;96224.45;;;4.31;69.97
61357;BME280;47227;46.752;23.576;2023-04-07T15:04:24;96227.75;;;4.24;69.68
61357;BME280;47227;46.752;23.576;2023-04-07T15:06:52;96225.10;;;4.19;69.81
61357;BME280;47227;46.752;23.576;2023-04-07T15:09:21;96225.73;;;4.11;71.50
61357;BME280;47227;46.752;23.576;2023-04-07T15:11:49;96228.02;;;4.11;70.96
61357;BME280;47227;46.752;23.576;2023-04-07T15:14:17;96227.82;;;4.11;71.36
61357;BME280;47227;46.752;23.576;2023-04-07T15:16:45;96230.52;;;4.14;71.00
61357;BME280;47227;46.752;23.576;2023-04-07T15:19:15;96229.63;;;4.16;70.75
61357;BME280;47227;46.752;23.576;2023-04-07T15:21:58;96231.48;;;4.15;71.15
61357;BME280;47227;46.752;23.576;2023-04-07T15:24:26;96231.86;;;4.16;71.08
61357;BME280;47227;46.752;23.576;2023-04-07T15:26:54;96231.02;;;4.21;70.89
61357;BME280;47227;46.752;23.576;2023-04-07T15:29:22;96233.23;;;4.22;71.01
61357;BME280;47227;46.752;23.576;2023-04-07T15:31:50;96235.72;;;4.22;70.72
61357;BME280;47227;46.752;23.576;2023-04-07T15:34:20;96236.20;;;4.20;70.57
61357;BME280;47227;46.752;23.576;2023-04-07T15:36:48;96236.20;;;4.12;70.83
61357;BME280;47227;46.752;23.576;2023-04-07T15:39:16;96237.92;;;4.02;71.13
61357;BME280;47227;46.752;23.576;2023-04-07T15:41:45;96236.95;;;3.98;71.79
61357;BME280;47227;46.752;23.576;2023-04-07T15:44:33;96238.11;;;3.94;71.77
61357;BME280;47227;46.752;23.576;2023-04-07T15:47:19;96240.25;;;3.85;71.69
61357;BME280;47227;46.752;23.576;2023-04-07T15:49:49;96238.10;;;3.77;71.41
61357;BME280;47227;46.752;23.576;2023-04-07T15:52:20;96240.98;;;3.71;71.75
61357;BME280;47227;46.752;23.576;2023-04-07T15:54:49;96242.06;;;3.66;72.43
61357;BME280;47227;46.752;23.576;2023-04-07T15:57:17;96248.76;;;3.63;72.02
61357;BME280;47227;46.752;23.576;2023-04-07T15:59:46;96250.48;;;3.56;72.02
61357;BME280;47227;46.752;23.576;2023-04-07T16:02:14;96251.45;;;3.48;72.57
61357;BME280;47227;46.752;23.576;2023-04-07T16:04:42;96251.46;;;3.42;72.91
61357;BME280;47227;46.752;23.576;2023-04-07T16:07:13;96253.88;;;3.37;73.60
61357;BME280;47227;46.752;23.576;2023-04-07T16:09:41;96255.39;;;3.33;72.70
61357;BME280;47227;46.752;23.576;2023-04-07T16:12:10;96256.33;;;3.24;72.74
61357;BME280;47227;46.752;23.576;2023-04-07T16:14:38;96258.95;;;3.20;74.10
61357;BME280;47227;46.752;23.576;2023-04-07T16:17:06;96259.05;;;3.15;73.84
61357;BME280;47227;46.752;23.576;2023-04-07T16:19:34;96260.20;;;3.12;74.42
61357;BME280;47227;46.752;23.576;2023-04-07T16:22:02;96264.89;;;3.06;74.31
61357;BME280;47227;46.752;23.576;2023-04-07T16:24:30;96265.10;;;3.00;74.17
61357;BME280;47227;46.752;23.576;2023-04-07T16:26:58;96267.52;;;2.98;75.03
61357;BME280;47227;46.752;23.576;2023-04-07T16:29:31;96270.72;;;2.95;74.49
61357;BME280;47227;46.752;23.576;2023-04-07T16:31:59;96271.67;;;2.92;74.29
61357;BME280;47227;46.752;23.576;2023-04-07T16:34:28;96274.50;;;2.91;74.87
61357;BME280;47227;46.752;23.576;2023-04-07T16:36:57;96275.02;;;2.92;74.84
61357;BME280;47227;46.752;23.576;2023-04-07T16:39:26;96277.10;;;2.95;74.99
61357;BME280;47227;46.752;23.576;2023-04-07T16:41:56;96279.88;;;2.97;74.97
61357;BME280;47227;46.752;23.576;2023-04-07T16:44:25;96282.09;;;3.00;75.29
61357;BME280;47227;46.752;23.576;2023-04-07T16:46:55;96283.23;;;3.02;75.37
61357;BME280;47227;46.752;23.576;2023-04-07T16:49:23;96286.11;;;3.06;75.38
61357;BME280;47227;46.752;23.576;2023-04-07T16:51:52;96285.83;;;3.10;75.48
61357;BME280;47227;46.752;23.576;2023-04-07T16:54:21;96288.41;;;3.10;75.38
61357;BME280;47227;46.752;23.576;2023-04-07T16:56:50;96289.25;;;3.06;75.31
61357;BME280;47227;46.752;23.576;2023-04-07T16:59:18;96295.59;;;3.02;75.24
61357;BME280;47227;46.752;23.576;2023-04-07T17:01:47;96291.17;;;2.97;74.85
61357;BME280;47227;46.752;23.576;2023-04-07T17:04:21;96296.02;;;2.92;75.08
61357;BME280;47227;46.752;23.576;2023-04-07T17:06:50;96299.20;;;2.85;75.11
61357;BME280;47227;46.752;23.576;2023-04-07T17:09:19;96301.67;;;2.78;74.95
61357;BME280;47227;46.752;23.576;2023-04-07T17:11:47;96300.45;;;2.69;74.77
61357;BME280;47227;46.752;23.576;2023-04-07T17:14:19;96311.39;;;2.59;74.89
61357;BME280;47227;46.752;23.576;2023-04-07T17:16:48;96311.55;;;2.49;74.91
61357;BME280;47227;46.752;23.576;2023-04-07T17:19:18;96315.67;;;2.40;74.70
61357;BME280;47227;46.752;23.576;2023-04-07T17:21:51;96315.13;;;2.32;75.04
61357;BME280;47227;46.752;23.576;2023-04-07T17:24:19;96322.11;;;2.24;78.57
61357;BME280;47227;46.752;23.576;2023-04-07T17:26:50;96321.20;;;2.18;79.23
61357;BME280;47227;46.752;23.576;2023-04-07T17:29:18;96320.41;;;2.11;77.93
61357;BME280;47227;46.752;23.576;2023-04-07T17:31:48;96324.27;;;2.06;77.62
61357;BME280;47227;46.752;23.576;2023-04-07T17:34:16;96324.96;;;2.01;78.49
61357;BME280;47227;46.752;23.576;2023-04-07T17:36:46;96331.85;;;1.95;77.78
61357;BME280;47227;46.752;23.576;2023-04-07T17:39:14;96337.35;;;1.91;78.00
61357;BME280;47227;46.752;23.576;2023-04-07T17:41:42;96339.02;;;1.87;79.16
61357;BME280;47227;46.752;23.576;2023-04-07T17:44:10;96342.13;;;1.83;78.91
61357;BME280;47227;46.752;23.576;2023-04-07T17:46:38;96345.73;;;1.79;80.52
61357;BME280;47227;46.752;23.576;2023-04-07T17:49:07;96344.15;;;1.75;79.79
61357;BME280;47227;46.752;23.576;2023-04-07T17:51:36;96348.80;;;1.70;81.60
61357;BME280;47227;46.752;23.576;2023-04-07T17:54:04;96353.99;;;1.66;81.81
61357;BME280;47227;46.752;23.576;2023-04-07T17:56:32;96358.69;;;1.66;80.70
61357;BME280;47227;46.752;23.576;2023-04-07T17:59:00;96361.05;;;1.68;81.81
61357;BME280;47227;46.752;23.576;2023-04-07T18:01:28;96361.81;;;1.70;80.70
61357;BME280;47227;46.752;23.576;2023-04-07T18:03:57;96362.58;;;1.72;80.38
61357;BME280;47227;46.752;23.576;2023-04-07T18:06:25;96363.96;;;1.75;80.06
61357;BME280;47227;46.752;23.576;2023-04-07T18:08:53;96364.27;;;1.78;80.21
61357;BME280;47227;46.752;23.576;2023-04-07T18:11:22;96366.94;;;1.82;80.06
61357;BME280;47227;46.752;23.576;2023-04-07T18:13:50;96367.08;;;1.83;80.16
61357;BME280;47227;46.752;23.576;2023-04-07T18:16:18;96368.27;;;1.85;80.02
61357;BME280;47227;46.752;23.576;2023-04-07T18:19:09;96370.52;;;1.86;80.10
61357;BME280;47227;46.752;23.576;2023-04-07T18:21:37;96371.55;;;1.86;79.75
61357;BME280;47227;46.752;23.576;2023-04-07T18:24:06;96376.71;;;1.85;80.09
61357;BME280;47227;46.752;23.576;2023-04-07T18:26:56;96377.85;;;1.81;79.78
61357;BME280;47227;46.752;23.576;2023-04-07T18:29:24;96379.81;;;1.78;79.64
61357;BME280;47227;46.752;23.576;2023-04-07T18:31:55;96381.40;;;1.75;79.69